createdAt,value
2016-12-15T00:00:34.782Z,0
2016-12-15T00:01:43.678Z,0
2016-12-15T00:02:52.274Z,0
2016-12-15T00:04:00.845Z,0
2016-12-15T00:05:09.735Z,0
2016-12-15T00:06:18.355Z,0
2016-12-15T00:07:27.248Z,0
2016-12-15T00:08:35.828Z,0
2016-12-15T00:09:44.401Z,0
2016-12-15T00:10:53.336Z,0
2016-12-15T00:12:02.282Z,0
2016-12-15T00:13:10.862Z,0
2016-12-15T00:14:19.437Z,0
2016-12-15T00:15:28.651Z,0
2016-12-15T00:16:37.864Z,0
2016-12-15T00:17:46.788Z,0
2016-12-15T00:18:56.006Z,0
2016-12-15T00:20:04.894Z,0
2016-12-15T00:21:13.469Z,0
2016-12-15T00:22:22.366Z,0
2016-12-15T00:23:31.356Z,0
2016-12-15T00:24:39.933Z,0
2016-12-15T00:25:48.828Z,0
2016-12-15T00:26:58.034Z,0
2016-12-15T00:28:06.607Z,0
2016-12-15T00:29:15.916Z,0
2016-12-15T00:30:24.822Z,0
2016-12-15T00:31:34.038Z,0
2016-12-15T00:32:42.926Z,0
2016-12-15T00:33:51.500Z,0
2016-12-15T00:35:00.121Z,0
2016-12-15T00:36:08.695Z,0
2016-12-15T00:37:17.591Z,0
2016-12-15T00:38:26.163Z,0
2016-12-15T00:39:34.737Z,0
2016-12-15T00:40:43.675Z,0
2016-12-15T00:41:52.886Z,0
2016-12-15T00:43:01.779Z,0
2016-12-15T00:44:10.350Z,0
2016-12-15T00:45:18.922Z,0
2016-12-15T00:46:27.873Z,0
2016-12-15T00:47:36.766Z,0
2016-12-15T00:48:45.669Z,0
2016-12-15T00:49:54.559Z,0
2016-12-15T00:51:03.142Z,0
2016-12-15T00:52:12.088Z,0
2016-12-15T00:53:21.306Z,0
2016-12-15T00:54:29.878Z,0
2016-12-15T00:55:38.768Z,0
2016-12-15T00:56:47.343Z,0
2016-12-15T00:57:56.362Z,0
2016-12-15T00:59:04.937Z,0
2016-12-15T01:00:13.510Z,0
2016-12-15T01:01:22.082Z,0
2016-12-15T01:02:30.978Z,0
2016-12-15T01:03:39.918Z,0
2016-12-15T01:04:48.491Z,0
2016-12-15T01:05:57.066Z,0
2016-12-15T01:07:05.645Z,0
2016-12-15T01:08:14.257Z,0
2016-12-15T01:09:23.196Z,0
2016-12-15T01:10:31.769Z,0
2016-12-15T01:11:40.370Z,0
2016-12-15T01:12:49.262Z,0
2016-12-15T01:13:58.160Z,0
2016-12-15T01:15:07.108Z,0
2016-12-15T01:16:15.679Z,0
2016-12-15T01:17:24.250Z,0
2016-12-15T01:18:32.822Z,0
2016-12-15T01:19:41.398Z,0
2016-12-15T01:20:50.325Z,0
2016-12-15T01:21:58.898Z,0
2016-12-15T01:23:07.793Z,0
2016-12-15T01:24:16.381Z,0
2016-12-15T01:25:25.593Z,0
2016-12-15T01:26:34.531Z,0
2016-12-15T01:27:43.749Z,0
2016-12-15T01:28:52.320Z,0
2016-12-15T01:30:00.894Z,0
2016-12-15T01:31:09.786Z,0
2016-12-15T01:32:18.409Z,0
2016-12-15T01:33:27.617Z,0
2016-12-15T01:34:36.506Z,0
2016-12-15T01:35:45.082Z,0
2016-12-15T01:36:53.997Z,0
2016-12-15T01:38:02.937Z,0
2016-12-15T01:39:11.833Z,0
2016-12-15T01:40:20.723Z,0
2016-12-15T01:41:29.294Z,0
2016-12-15T01:42:38.195Z,0
2016-12-15T01:43:46.817Z,0
2016-12-15T01:44:55.387Z,0
2016-12-15T01:46:03.968Z,0
2016-12-15T01:47:12.860Z,0
2016-12-15T01:48:21.748Z,0
2016-12-15T01:49:30.372Z,0
2016-12-15T01:50:39.264Z,0
2016-12-15T01:51:48.156Z,0
2016-12-15T01:52:56.731Z,0
2016-12-15T01:54:05.622Z,0
2016-12-15T01:55:14.241Z,0
2016-12-15T01:56:22.814Z,0
2016-12-15T01:57:31.703Z,0
2016-12-15T01:58:40.288Z,0
2016-12-15T01:59:49.182Z,0
2016-12-15T02:00:57.805Z,0
2016-12-15T02:02:06.704Z,0
2016-12-15T02:03:15.597Z,0
2016-12-15T02:04:24.170Z,0
2016-12-15T02:05:33.385Z,0
2016-12-15T02:06:42.325Z,0
2016-12-15T02:07:51.214Z,0
2016-12-15T02:09:00.105Z,0
2016-12-15T02:10:09.005Z,0
2016-12-15T02:11:17.893Z,0
2016-12-15T02:12:27.133Z,0
2016-12-15T02:13:36.023Z,0
2016-12-15T02:14:44.917Z,0
2016-12-15T02:15:53.810Z,0
2016-12-15T02:17:02.701Z,0
2016-12-15T02:18:11.328Z,0
2016-12-15T02:19:19.899Z,0
2016-12-15T02:20:28.790Z,0
2016-12-15T02:21:37.681Z,0
2016-12-15T02:22:46.575Z,0
2016-12-15T02:23:55.511Z,0
2016-12-15T02:25:04.402Z,0
2016-12-15T02:26:13.296Z,0
2016-12-15T02:27:21.872Z,0
2016-12-15T02:28:30.762Z,0
2016-12-15T02:29:39.712Z,0
2016-12-15T02:30:48.605Z,0
2016-12-15T02:31:57.178Z,0
2016-12-15T02:33:05.756Z,0
2016-12-15T02:34:14.675Z,0
2016-12-15T02:35:23.617Z,0
2016-12-15T02:36:32.834Z,0
2016-12-15T02:37:41.419Z,0
2016-12-15T02:38:50.003Z,0
2016-12-15T02:39:58.908Z,0
2016-12-15T02:41:07.880Z,0
2016-12-15T02:42:16.782Z,0
2016-12-15T02:43:25.367Z,0
2016-12-15T02:44:34.282Z,0
2016-12-15T02:45:43.186Z,0
2016-12-15T02:46:52.450Z,0
2016-12-15T02:48:01.043Z,0
2016-12-15T02:49:09.629Z,0
2016-12-15T02:50:18.220Z,0
2016-12-15T02:51:27.138Z,0
2016-12-15T02:52:35.771Z,0
2016-12-15T02:53:44.352Z,0
2016-12-15T02:54:53.262Z,0
2016-12-15T02:56:02.487Z,0
2016-12-15T02:57:11.062Z,0
2016-12-15T02:58:19.749Z,0
2016-12-15T02:59:28.350Z,0
2016-12-15T03:00:36.946Z,0
2016-12-15T03:01:45.860Z,0
2016-12-15T03:02:55.081Z,0
2016-12-15T03:04:04.112Z,0
2016-12-15T03:05:13.003Z,0
2016-12-15T03:06:21.914Z,0
2016-12-15T03:07:31.137Z,0
2016-12-15T03:08:39.720Z,0
2016-12-15T03:09:48.367Z,0
2016-12-15T03:10:57.264Z,0
2016-12-15T03:12:06.150Z,0
2016-12-15T03:13:15.049Z,0
2016-12-15T03:14:23.947Z,0
2016-12-15T03:15:32.578Z,0
2016-12-15T03:16:41.161Z,0
2016-12-15T03:17:50.070Z,0
2016-12-15T03:18:58.972Z,0
2016-12-15T03:20:07.569Z,0
2016-12-15T03:21:16.517Z,0
2016-12-15T03:22:25.436Z,0
2016-12-15T03:23:34.339Z,0
2016-12-15T03:24:43.595Z,0
2016-12-15T03:25:52.179Z,0
2016-12-15T03:27:01.477Z,0
2016-12-15T03:28:10.377Z,0
2016-12-15T03:29:19.281Z,0
2016-12-15T03:30:28.200Z,0
2016-12-15T03:31:36.781Z,0
2016-12-15T03:32:45.738Z,0
2016-12-15T03:33:54.629Z,0
2016-12-15T03:35:03.849Z,0
2016-12-15T03:36:12.429Z,0
2016-12-15T03:37:21.014Z,0
2016-12-15T03:38:29.973Z,0
2016-12-15T03:39:38.888Z,0
2016-12-15T03:40:47.470Z,0
2016-12-15T03:41:56.384Z,0
2016-12-15T03:43:04.970Z,0
2016-12-15T03:44:13.652Z,0
2016-12-15T03:45:22.245Z,0
2016-12-15T03:46:30.840Z,0
2016-12-15T03:47:39.409Z,0
2016-12-15T03:48:48.000Z,0
2016-12-15T03:49:56.958Z,0
2016-12-15T03:51:06.176Z,0
2016-12-15T03:52:15.074Z,0
2016-12-15T03:53:23.669Z,0
2016-12-15T03:54:32.591Z,0
2016-12-15T03:55:41.233Z,0
2016-12-15T03:56:49.823Z,0
2016-12-15T03:57:58.733Z,0
2016-12-15T03:59:07.313Z,0
2016-12-15T04:00:15.893Z,0
2016-12-15T04:01:24.854Z,0
2016-12-15T04:02:33.447Z,0
2016-12-15T04:03:42.034Z,0
2016-12-15T04:04:50.607Z,0
2016-12-15T04:05:59.174Z,0
2016-12-15T04:07:08.111Z,0
2016-12-15T04:08:16.694Z,0
2016-12-15T04:09:25.281Z,0
2016-12-15T04:10:34.173Z,0
2016-12-15T04:11:43.420Z,0
2016-12-15T04:12:52.422Z,0
2016-12-15T04:14:01.026Z,0
2016-12-15T04:15:09.602Z,0
2016-12-15T04:16:19.166Z,0
2016-12-15T04:17:28.422Z,0
2016-12-15T04:18:37.373Z,0
2016-12-15T04:19:45.968Z,0
2016-12-15T04:20:54.872Z,0
2016-12-15T04:22:03.779Z,0
2016-12-15T04:23:12.367Z,0
2016-12-15T04:24:21.055Z,0
2016-12-15T04:25:29.643Z,0
2016-12-15T04:26:38.858Z,0
2016-12-15T04:27:48.397Z,0
2016-12-15T04:28:56.971Z,0
2016-12-15T04:30:05.711Z,0
2016-12-15T04:31:14.629Z,0
2016-12-15T04:32:24.192Z,0
2016-12-15T04:33:33.090Z,0
2016-12-15T04:34:41.995Z,0
2016-12-15T04:35:50.919Z,0
2016-12-15T04:36:59.501Z,0
2016-12-15T04:38:08.069Z,0
2016-12-15T04:39:16.983Z,0
2016-12-15T04:40:25.588Z,0
2016-12-15T04:41:34.264Z,0
2016-12-15T04:42:43.473Z,0
2016-12-15T04:43:52.071Z,0
2016-12-15T04:45:00.655Z,0
2016-12-15T04:46:09.550Z,0
2016-12-15T04:47:18.196Z,0
2016-12-15T04:48:26.787Z,0
2016-12-15T04:49:35.363Z,0
2016-12-15T04:50:44.257Z,0
2016-12-15T04:51:53.162Z,0
2016-12-15T04:53:02.495Z,0
2016-12-15T04:54:11.088Z,0
2016-12-15T04:55:19.659Z,0
2016-12-15T04:56:28.567Z,0
2016-12-15T04:57:37.145Z,0
2016-12-15T04:58:46.432Z,0
2016-12-15T04:59:55.345Z,0
2016-12-15T05:01:04.257Z,0
2016-12-15T05:02:13.173Z,0
2016-12-15T05:03:22.420Z,0
2016-12-15T05:04:31.345Z,0
2016-12-15T05:05:39.954Z,0
2016-12-15T05:06:48.548Z,0
2016-12-15T05:07:57.458Z,0
2016-12-15T05:09:06.365Z,0
2016-12-15T05:10:15.420Z,0
2016-12-15T05:11:24.642Z,0
2016-12-15T05:12:33.537Z,0
2016-12-15T05:13:42.116Z,0
2016-12-15T05:14:51.354Z,0
2016-12-15T05:15:59.979Z,0
2016-12-15T05:17:08.561Z,0
2016-12-15T05:18:17.148Z,0
2016-12-15T05:19:25.725Z,0
2016-12-15T05:20:34.636Z,0
2016-12-15T05:21:43.575Z,0
2016-12-15T05:22:52.468Z,0
2016-12-15T05:24:01.362Z,0
2016-12-15T05:25:10.272Z,0
2016-12-15T05:26:18.860Z,0
2016-12-15T05:27:28.854Z,0
2016-12-15T05:28:37.449Z,0
2016-12-15T05:29:46.354Z,0
2016-12-15T05:30:55.275Z,0
2016-12-15T05:32:03.860Z,0
2016-12-15T05:33:12.792Z,0
2016-12-15T05:34:21.376Z,0
2016-12-15T05:35:29.975Z,0
2016-12-15T05:36:38.561Z,0
2016-12-15T05:37:47.782Z,0
2016-12-15T05:38:56.453Z,0
2016-12-15T05:40:05.351Z,0
2016-12-15T05:41:14.256Z,0
2016-12-15T05:42:23.159Z,0
2016-12-15T05:43:32.070Z,0
2016-12-15T05:44:41.312Z,0
2016-12-15T05:45:49.886Z,0
2016-12-15T05:46:58.489Z,0
2016-12-15T05:48:07.079Z,0
2016-12-15T05:49:15.991Z,0
2016-12-15T05:50:25.247Z,0
2016-12-15T05:51:33.831Z,0
2016-12-15T05:52:42.755Z,0
2016-12-15T05:53:51.656Z,0
2016-12-15T05:55:00.549Z,0
2016-12-15T05:56:09.800Z,0
2016-12-15T05:57:18.704Z,0
2016-12-15T05:58:27.926Z,0
2016-12-15T05:59:37.159Z,0
2016-12-15T06:00:46.392Z,0
2016-12-15T06:01:55.408Z,0
2016-12-15T06:03:03.990Z,0
2016-12-15T06:04:12.887Z,0
2016-12-15T06:05:21.466Z,0
2016-12-15T06:06:30.372Z,0
2016-12-15T06:07:38.998Z,0
2016-12-15T06:08:47.903Z,0
2016-12-15T06:09:56.820Z,0
2016-12-15T06:11:05.728Z,0
2016-12-15T06:12:14.313Z,0
2016-12-15T06:13:22.988Z,0
2016-12-15T06:14:31.885Z,0
2016-12-15T06:15:40.496Z,0
2016-12-15T06:16:49.417Z,0
2016-12-15T06:17:58.309Z,0
2016-12-15T06:19:07.316Z,0
2016-12-15T06:20:15.896Z,0
2016-12-15T06:21:25.462Z,0
2016-12-15T06:22:34.039Z,0
2016-12-15T06:23:42.623Z,0
2016-12-15T06:24:52.260Z,0
2016-12-15T06:26:01.483Z,0
2016-12-15T06:27:10.383Z,0
2016-12-15T06:28:18.979Z,0
2016-12-15T06:29:27.885Z,0
2016-12-15T06:30:37.456Z,0
2016-12-15T06:31:46.038Z,0
2016-12-15T06:32:54.611Z,0
2016-12-15T06:34:03.190Z,0
2016-12-15T06:35:12.094Z,0
2016-12-15T06:36:21.035Z,0
2016-12-15T06:37:30.589Z,0
2016-12-15T06:38:39.181Z,0
2016-12-15T06:39:48.090Z,0
2016-12-15T06:40:57.324Z,0
2016-12-15T06:42:05.974Z,0
2016-12-15T06:43:14.557Z,0
2016-12-15T06:44:23.465Z,0
2016-12-15T06:45:32.052Z,0
2016-12-15T06:46:40.649Z,0
2016-12-15T06:47:49.903Z,0
2016-12-15T06:48:58.478Z,0
2016-12-15T06:50:07.375Z,0
2016-12-15T06:51:15.974Z,0
2016-12-15T06:52:24.873Z,20
2016-12-15T06:53:33.573Z,28
2016-12-15T06:54:42.499Z,28
2016-12-15T06:55:51.080Z,28
2016-12-15T06:56:59.671Z,28
2016-12-15T06:58:08.250Z,28
2016-12-15T06:59:16.886Z,0
2016-12-15T07:00:25.777Z,4
2016-12-15T07:01:34.355Z,4
2016-12-15T07:02:42.951Z,4
2016-12-15T07:03:51.527Z,8
2016-12-15T07:05:00.235Z,8
2016-12-15T07:06:08.828Z,8
2016-12-15T07:07:17.739Z,12
2016-12-15T07:08:26.340Z,12
2016-12-15T07:09:34.923Z,12
2016-12-15T07:10:43.611Z,16
2016-12-15T07:11:52.825Z,16
2016-12-15T07:13:01.710Z,20
2016-12-15T07:14:10.635Z,20
2016-12-15T07:15:19.852Z,28
2016-12-15T07:16:28.871Z,32
2016-12-15T07:17:38.110Z,36
2016-12-15T07:18:47.670Z,40
2016-12-15T07:19:57.230Z,44
2016-12-15T07:21:05.809Z,52
2016-12-15T07:22:14.806Z,60
2016-12-15T07:23:24.037Z,68
2016-12-15T07:24:32.950Z,76
2016-12-15T07:25:41.529Z,84
2016-12-15T07:26:50.118Z,84
2016-12-15T07:27:59.109Z,100
2016-12-15T07:29:07.698Z,104
2016-12-15T07:30:16.602Z,112
2016-12-15T07:31:25.177Z,124
2016-12-15T07:32:34.075Z,136
2016-12-15T07:33:43.003Z,160
2016-12-15T07:34:51.587Z,180
2016-12-15T07:36:00.528Z,192
2016-12-15T07:37:09.118Z,224
2016-12-15T07:38:17.696Z,232
2016-12-15T07:39:26.637Z,260
2016-12-15T07:40:35.220Z,288
2016-12-15T07:41:44.105Z,300
2016-12-15T07:42:53.345Z,312
2016-12-15T07:44:01.922Z,312
2016-12-15T07:45:10.911Z,320
2016-12-15T07:46:19.811Z,328
2016-12-15T07:47:28.392Z,348
2016-12-15T07:48:37.297Z,356
2016-12-15T07:49:45.908Z,388
2016-12-15T07:50:54.838Z,428
2016-12-15T07:52:03.438Z,428
2016-12-15T07:53:12.037Z,452
2016-12-15T07:54:21.272Z,520
2016-12-15T07:55:30.497Z,600
2016-12-15T07:56:39.178Z,580
2016-12-15T07:57:47.770Z,572
2016-12-15T07:58:56.366Z,612
2016-12-15T08:00:04.947Z,612
2016-12-15T08:01:14.179Z,640
2016-12-15T08:02:23.126Z,620
2016-12-15T08:03:32.043Z,636
2016-12-15T08:04:40.949Z,684
2016-12-15T08:05:49.528Z,696
2016-12-15T08:06:58.443Z,740
2016-12-15T08:08:07.094Z,812
2016-12-15T08:09:15.684Z,856
2016-12-15T08:10:24.889Z,884
2016-12-15T08:11:33.803Z,848
2016-12-15T08:12:42.388Z,840
2016-12-15T08:13:51.657Z,896
2016-12-15T08:15:00.571Z,852
2016-12-15T08:16:09.804Z,948
2016-12-15T08:17:18.398Z,996
2016-12-15T08:18:27.325Z,1160
2016-12-15T08:19:36.274Z,1160
2016-12-15T08:20:44.869Z,1068
2016-12-15T08:21:53.795Z,1008
2016-12-15T08:23:02.386Z,1000
2016-12-15T08:24:11.293Z,972
2016-12-15T08:25:19.921Z,1064
2016-12-15T08:26:28.515Z,1084
2016-12-15T08:27:37.097Z,1144
2016-12-15T08:28:46.325Z,1168
2016-12-15T08:29:54.903Z,1228
2016-12-15T08:31:03.826Z,1304
2016-12-15T08:32:12.393Z,1408
2016-12-15T08:33:20.979Z,1448
2016-12-15T08:34:29.562Z,1408
2016-12-15T08:35:38.129Z,1516
2016-12-15T08:36:47.062Z,1488
2016-12-15T08:37:55.972Z,1568
2016-12-15T08:39:04.589Z,1580
2016-12-15T08:40:13.833Z,1528
2016-12-15T08:41:23.074Z,1656
2016-12-15T08:42:32.070Z,1640
2016-12-15T08:43:40.963Z,1728
2016-12-15T08:44:49.543Z,1612
2016-12-15T08:45:58.459Z,1640
2016-12-15T08:47:07.689Z,1672
2016-12-15T08:48:16.324Z,1660
2016-12-15T08:49:25.559Z,1580
2016-12-15T08:50:34.814Z,1656
2016-12-15T08:51:43.711Z,1728
2016-12-15T08:52:52.305Z,1864
2016-12-15T08:54:01.267Z,1812
2016-12-15T08:55:09.859Z,1916
2016-12-15T08:56:19.108Z,1900
2016-12-15T08:57:28.020Z,1820
2016-12-15T08:58:36.932Z,1816
2016-12-15T08:59:45.585Z,1704
2016-12-15T09:00:54.528Z,1752
2016-12-15T09:02:03.112Z,1772
2016-12-15T09:03:12.347Z,1824
2016-12-15T09:04:21.264Z,2012
2016-12-15T09:05:30.520Z,2128
2016-12-15T09:06:39.119Z,1904
2016-12-15T09:07:47.716Z,1936
2016-12-15T09:08:56.311Z,2024
2016-12-15T09:10:04.913Z,2140
2016-12-15T09:11:13.540Z,2056
2016-12-15T09:12:22.134Z,2092
2016-12-15T09:13:30.719Z,2228
2016-12-15T09:14:39.307Z,1972
2016-12-15T09:15:48.229Z,1784
2016-12-15T09:16:57.517Z,1972
2016-12-15T09:18:06.433Z,1852
2016-12-15T09:19:15.334Z,1964
2016-12-15T09:20:24.546Z,2152
2016-12-15T09:21:33.140Z,2336
2016-12-15T09:22:42.158Z,2980
2016-12-15T09:23:51.398Z,2532
2016-12-15T09:25:00.619Z,2628
2016-12-15T09:26:09.512Z,2736
2016-12-15T09:27:18.095Z,3008
2016-12-15T09:28:26.835Z,2896
2016-12-15T09:29:35.736Z,2868
2016-12-15T09:30:44.324Z,2776
2016-12-15T09:31:53.253Z,2768
2016-12-15T09:33:02.180Z,2820
2016-12-15T09:34:10.863Z,2920
2016-12-15T09:35:19.766Z,2888
2016-12-15T09:36:28.664Z,2808
2016-12-15T09:37:37.242Z,2796
2016-12-15T09:38:46.157Z,2900
2016-12-15T09:39:54.789Z,2832
2016-12-15T09:41:03.390Z,2880
2016-12-15T09:42:12.618Z,2976
2016-12-15T09:43:21.530Z,3028
2016-12-15T09:44:30.119Z,2992
2016-12-15T09:45:38.760Z,3220
2016-12-15T09:46:47.670Z,2928
2016-12-15T09:47:56.557Z,3160
2016-12-15T09:49:05.140Z,3200
2016-12-15T09:50:14.046Z,3516
2016-12-15T09:51:22.736Z,3476
2016-12-15T09:52:31.992Z,3208
2016-12-15T09:53:40.928Z,3276
2016-12-15T09:54:49.839Z,2936
2016-12-15T09:55:59.062Z,3256
2016-12-15T09:57:08.005Z,3188
2016-12-15T09:58:16.897Z,3080
2016-12-15T09:59:25.488Z,3388
2016-12-15T10:00:34.398Z,3420
2016-12-15T10:01:43.315Z,3440
2016-12-15T10:02:51.992Z,3288
2016-12-15T10:04:00.901Z,3544
2016-12-15T10:05:09.799Z,3532
2016-12-15T10:06:18.398Z,3240
2016-12-15T10:07:26.979Z,3236
2016-12-15T10:08:35.929Z,3348
2016-12-15T10:09:44.839Z,3104
2016-12-15T10:10:53.756Z,2716
2016-12-15T10:12:02.655Z,2832
2016-12-15T10:13:11.246Z,3480
2016-12-15T10:14:20.373Z,3172
2016-12-15T10:15:29.272Z,3992
2016-12-15T10:16:38.168Z,3276
2016-12-15T10:17:47.076Z,3520
2016-12-15T10:18:55.983Z,3008
2016-12-15T10:20:04.613Z,2856
2016-12-15T10:21:13.535Z,3148
2016-12-15T10:22:22.447Z,3416
2016-12-15T10:23:31.043Z,3524
2016-12-15T10:24:39.948Z,3200
2016-12-15T10:25:48.908Z,2764
2016-12-15T10:26:57.829Z,2728
2016-12-15T10:28:06.756Z,2624
2016-12-15T10:29:15.352Z,2896
2016-12-15T10:30:24.574Z,3300
2016-12-15T10:31:33.228Z,3304
2016-12-15T10:32:42.137Z,3040
2016-12-15T10:33:51.051Z,2832
2016-12-15T10:34:59.636Z,2560
2016-12-15T10:36:08.554Z,2876
2016-12-15T10:37:17.503Z,2544
2016-12-15T10:38:26.088Z,2604
2016-12-15T10:39:34.682Z,2852
2016-12-15T10:40:43.257Z,2808
2016-12-15T10:41:51.832Z,2964
2016-12-15T10:43:01.153Z,3208
2016-12-15T10:44:09.727Z,2708
2016-12-15T10:45:18.318Z,2752
2016-12-15T10:46:27.217Z,2624
2016-12-15T10:47:36.775Z,2956
2016-12-15T10:48:45.741Z,2940
2016-12-15T10:49:54.983Z,2720
2016-12-15T10:51:03.548Z,2948
2016-12-15T10:52:12.449Z,2784
2016-12-15T10:53:21.987Z,2732
2016-12-15T10:54:31.280Z,2796
2016-12-15T10:55:39.857Z,2868
2016-12-15T10:56:48.433Z,2896
2016-12-15T10:57:57.353Z,2984
2016-12-15T10:59:05.944Z,3024
2016-12-15T11:00:15.286Z,3076
2016-12-15T11:01:23.872Z,2908
2016-12-15T11:02:32.450Z,2564
2016-12-15T11:03:41.346Z,3144
2016-12-15T11:04:50.579Z,2944
2016-12-15T11:06:00.151Z,2856
2016-12-15T11:07:09.061Z,2616
2016-12-15T11:08:17.658Z,2956
2016-12-15T11:09:26.878Z,2716
2016-12-15T11:10:35.795Z,2692
2016-12-15T11:11:44.824Z,2720
2016-12-15T11:12:53.414Z,2740
2016-12-15T11:14:02.627Z,2708
2016-12-15T11:15:11.204Z,2692
2016-12-15T11:16:20.421Z,2672
2016-12-15T11:17:29.048Z,2564
2016-12-15T11:18:37.941Z,2664
2016-12-15T11:19:46.519Z,2552
2016-12-15T11:20:55.102Z,2560
2016-12-15T11:22:03.707Z,2632
2016-12-15T11:23:12.398Z,2700
2016-12-15T11:24:21.645Z,2656
2016-12-15T11:25:30.559Z,2660
2016-12-15T11:26:39.786Z,2472
2016-12-15T11:27:48.374Z,2720
2016-12-15T11:28:57.022Z,2556
2016-12-15T11:30:05.963Z,2412
2016-12-15T11:31:14.577Z,2424
2016-12-15T11:32:23.483Z,2308
2016-12-15T11:33:32.072Z,2396
2016-12-15T11:34:41.112Z,2220
2016-12-15T11:35:49.694Z,2224
2016-12-15T11:36:58.289Z,2204
2016-12-15T11:38:06.871Z,2328
2016-12-15T11:39:15.774Z,2180
2016-12-15T11:40:24.706Z,2248
2016-12-15T11:41:33.613Z,2276
2016-12-15T11:42:42.834Z,2208
2016-12-15T11:43:51.765Z,2124
2016-12-15T11:45:00.997Z,1996
2016-12-15T11:46:10.366Z,1956
2016-12-15T11:47:18.947Z,2072
2016-12-15T11:48:28.187Z,2028
2016-12-15T11:49:36.776Z,1996
2016-12-15T11:50:45.687Z,1992
2016-12-15T11:51:54.648Z,2044
2016-12-15T11:53:03.559Z,2008
2016-12-15T11:54:12.149Z,2024
2016-12-15T11:55:20.757Z,1980
2016-12-15T11:56:29.677Z,2496
2016-12-15T11:57:38.310Z,2168
2016-12-15T11:58:46.896Z,1972
2016-12-15T11:59:55.487Z,1972
2016-12-15T12:01:04.067Z,2136
2016-12-15T12:02:12.660Z,2380
2016-12-15T12:03:21.624Z,2208
2016-12-15T12:04:30.206Z,1916
2016-12-15T12:05:38.795Z,1876
2016-12-15T12:06:47.423Z,1940
2016-12-15T12:07:56.331Z,1860
2016-12-15T12:09:04.957Z,1884
2016-12-15T12:10:13.860Z,1960
2016-12-15T12:11:22.443Z,1760
2016-12-15T12:12:31.373Z,1672
2016-12-15T12:13:40.282Z,1680
2016-12-15T12:14:48.903Z,2028
2016-12-15T12:15:58.473Z,1748
2016-12-15T12:17:07.388Z,2088
2016-12-15T12:18:15.980Z,1880
2016-12-15T12:19:24.910Z,2064
2016-12-15T12:20:33.672Z,2184
2016-12-15T12:21:42.256Z,2008
2016-12-15T12:22:51.160Z,2320
2016-12-15T12:23:59.737Z,2140
2016-12-15T12:25:08.646Z,2092
2016-12-15T12:26:17.908Z,1876
2016-12-15T12:27:26.473Z,2076
2016-12-15T12:28:35.045Z,2228
2016-12-15T12:29:43.962Z,2440
2016-12-15T12:30:52.876Z,2220
2016-12-15T12:32:01.519Z,2168
2016-12-15T12:33:10.415Z,2232
2016-12-15T12:34:18.979Z,2156
2016-12-15T12:35:27.554Z,1884
2016-12-15T12:36:36.787Z,1872
2016-12-15T12:37:45.465Z,2036
2016-12-15T12:38:54.050Z,1964
2016-12-15T12:40:02.967Z,1916
2016-12-15T12:41:11.877Z,2016
2016-12-15T12:42:20.788Z,2084
2016-12-15T12:43:29.743Z,2012
2016-12-15T12:44:38.318Z,2120
2016-12-15T12:45:46.928Z,2280
2016-12-15T12:46:55.509Z,2172
2016-12-15T12:48:04.397Z,1988
2016-12-15T12:49:13.044Z,2100
2016-12-15T12:50:21.953Z,2028
2016-12-15T12:51:30.870Z,2044
2016-12-15T12:52:40.420Z,2092
2016-12-15T12:53:48.995Z,1984
2016-12-15T12:54:57.644Z,2008
2016-12-15T12:56:06.547Z,1984
2016-12-15T12:57:15.150Z,1888
2016-12-15T12:58:24.379Z,1936
2016-12-15T12:59:33.265Z,1844
2016-12-15T13:00:41.939Z,2136
2016-12-15T13:01:50.539Z,1752
2016-12-15T13:03:00.089Z,1688
2016-12-15T13:04:08.996Z,1784
2016-12-15T13:05:18.215Z,1796
2016-12-15T13:06:27.263Z,1648
2016-12-15T13:07:36.187Z,1576
2016-12-15T13:08:45.123Z,1476
2016-12-15T13:09:54.348Z,1740
2016-12-15T13:11:03.252Z,1984
2016-12-15T13:12:11.897Z,1988
2016-12-15T13:13:20.491Z,1848
2016-12-15T13:14:29.411Z,1688
2016-12-15T13:15:38.640Z,1612
2016-12-15T13:16:47.225Z,1512
2016-12-15T13:17:56.208Z,1600
2016-12-15T13:19:05.147Z,1620
2016-12-15T13:20:13.738Z,1504
2016-12-15T13:21:22.635Z,1544
2016-12-15T13:22:31.560Z,1480
2016-12-15T13:23:40.515Z,1436
2016-12-15T13:24:49.416Z,1388
2016-12-15T13:25:58.000Z,1444
2016-12-15T13:27:06.590Z,1380
2016-12-15T13:28:16.247Z,1344
2016-12-15T13:29:25.531Z,1444
2016-12-15T13:30:34.143Z,1460
2016-12-15T13:31:43.038Z,1412
2016-12-15T13:32:51.973Z,1428
2016-12-15T13:34:00.867Z,1324
2016-12-15T13:35:09.495Z,1476
2016-12-15T13:36:18.072Z,1432
2016-12-15T13:37:26.667Z,1344
2016-12-15T13:38:35.588Z,1348
2016-12-15T13:39:44.494Z,1296
2016-12-15T13:40:53.442Z,1272
2016-12-15T13:42:02.677Z,1328
2016-12-15T13:43:11.584Z,1336
2016-12-15T13:44:20.491Z,1404
2016-12-15T13:45:29.399Z,1228
2016-12-15T13:46:38.030Z,1148
2016-12-15T13:47:46.604Z,1076
2016-12-15T13:48:55.501Z,1136
2016-12-15T13:50:04.715Z,1168
2016-12-15T13:51:13.301Z,1216
2016-12-15T13:52:21.933Z,1168
2016-12-15T13:53:30.526Z,1088
2016-12-15T13:54:39.441Z,1072
2016-12-15T13:55:48.364Z,984
2016-12-15T13:56:57.259Z,1136
2016-12-15T13:58:06.913Z,1044
2016-12-15T13:59:15.818Z,960
2016-12-15T14:00:24.415Z,936
2016-12-15T14:01:33.004Z,980
2016-12-15T14:02:41.904Z,828
2016-12-15T14:03:51.578Z,984
2016-12-15T14:05:00.820Z,908
2016-12-15T14:06:09.404Z,860
2016-12-15T14:07:17.995Z,792
2016-12-15T14:08:26.586Z,908
2016-12-15T14:09:35.913Z,840
2016-12-15T14:10:44.796Z,896
2016-12-15T14:11:53.703Z,900
2016-12-15T14:13:02.288Z,984
2016-12-15T14:14:11.180Z,912
2016-12-15T14:15:19.845Z,836
2016-12-15T14:16:28.752Z,724
2016-12-15T14:17:37.657Z,816
2016-12-15T14:18:46.244Z,708
2016-12-15T14:19:55.477Z,712
2016-12-15T14:21:04.434Z,696
2016-12-15T14:22:13.337Z,768
2016-12-15T14:23:21.962Z,692
2016-12-15T14:24:30.547Z,624
2016-12-15T14:25:39.446Z,608
2016-12-15T14:26:48.715Z,632
2016-12-15T14:27:57.313Z,532
2016-12-15T14:29:05.887Z,496
2016-12-15T14:30:14.473Z,516
2016-12-15T14:31:23.056Z,484
2016-12-15T14:32:31.700Z,460
2016-12-15T14:33:40.275Z,452
2016-12-15T14:34:49.184Z,380
2016-12-15T14:35:58.106Z,376
2016-12-15T14:37:06.692Z,364
2016-12-15T14:38:15.643Z,328
2016-12-15T14:39:24.844Z,364
2016-12-15T14:40:33.757Z,320
2016-12-15T14:41:42.982Z,288
2016-12-15T14:42:51.549Z,252
2016-12-15T14:44:00.192Z,256
2016-12-15T14:45:08.813Z,248
2016-12-15T14:46:17.418Z,272
2016-12-15T14:47:26.325Z,224
2016-12-15T14:48:34.925Z,212
2016-12-15T14:49:43.866Z,220
2016-12-15T14:50:52.452Z,200
2016-12-15T14:52:01.679Z,180
2016-12-15T14:53:10.283Z,168
2016-12-15T14:54:18.860Z,172
2016-12-15T14:55:28.218Z,148
2016-12-15T14:56:36.801Z,136
2016-12-15T14:57:45.694Z,136
2016-12-15T14:58:54.610Z,152
2016-12-15T15:00:03.191Z,116
2016-12-15T15:01:11.883Z,104
2016-12-15T15:02:20.791Z,96
2016-12-15T15:03:29.703Z,100
2016-12-15T15:04:38.932Z,84
2016-12-15T15:05:47.514Z,92
2016-12-15T15:06:56.140Z,76
2016-12-15T15:08:04.715Z,68
2016-12-15T15:09:13.625Z,60
2016-12-15T15:10:22.210Z,52
2016-12-15T15:11:30.802Z,48
2016-12-15T15:12:39.737Z,44
2016-12-15T15:13:48.953Z,48
2016-12-15T15:14:57.550Z,40
2016-12-15T15:16:06.442Z,36
2016-12-15T15:17:15.043Z,32
2016-12-15T15:18:24.324Z,28
2016-12-15T15:19:32.897Z,28
2016-12-15T15:20:41.806Z,24
2016-12-15T15:21:50.729Z,20
2016-12-15T15:22:59.634Z,20
2016-12-15T15:24:08.674Z,16
2016-12-15T15:25:17.580Z,12
2016-12-15T15:26:26.164Z,12
2016-12-15T15:27:35.071Z,12
2016-12-15T15:28:43.643Z,8
2016-12-15T15:29:52.594Z,8
2016-12-15T15:31:01.702Z,8
2016-12-15T15:32:10.675Z,4
2016-12-15T15:33:19.581Z,8
2016-12-15T15:34:28.479Z,8
2016-12-15T15:35:37.110Z,4
2016-12-15T15:36:46.123Z,0
2016-12-15T15:37:55.665Z,4
2016-12-15T15:39:04.893Z,4
2016-12-15T15:40:13.807Z,0
2016-12-15T15:41:23.167Z,4
2016-12-15T15:42:31.762Z,4
2016-12-15T15:43:40.660Z,0
2016-12-15T15:44:49.568Z,0
2016-12-15T15:45:58.169Z,0
2016-12-15T15:47:07.215Z,0
2016-12-15T15:48:15.796Z,0
2016-12-15T15:49:24.705Z,0
2016-12-15T15:50:33.272Z,0
2016-12-15T15:51:41.846Z,0
2016-12-15T15:52:50.467Z,0
2016-12-15T15:53:59.045Z,0
2016-12-15T15:55:07.640Z,0
2016-12-15T15:56:17.215Z,0
2016-12-15T15:57:25.789Z,0
2016-12-15T15:58:34.747Z,0
2016-12-15T15:59:43.649Z,0
2016-12-15T16:00:52.242Z,0
2016-12-15T16:02:00.825Z,0
2016-12-15T16:03:09.732Z,0
2016-12-15T16:04:19.047Z,0
2016-12-15T16:05:27.946Z,0
2016-12-15T16:06:36.533Z,0
2016-12-15T16:07:45.440Z,0
2016-12-15T16:08:54.687Z,0
2016-12-15T16:10:03.354Z,0